Time;durP1;ratioP1;P1;durP2;ratioP2;P2;SDS_P1;SDS_P2;PMS_P1;PMS_P2;Temp;Humidity;BMP_temperature;BMP_pressure;BME280_temperature;BME280_humidity;BME280_pressure;Samples;Min_cycle;Max_cycle;Signal;HPM_P1;HPM_P2
2022/12/13 00:01:30;;;;;;;18.70;15.63;;;;;;;-5.37;82.74;100647.97;5054032;28;20209;-74
2022/12/13 00:03:58;;;;;;;21.07;14.93;;;;;;;-5.29;82.75;100640.69;5054499;28;20205;-74
2022/12/13 00:06:25;;;;;;;18.23;14.67;;;;;;;-5.21;82.78;100639.41;5053908;28;20201;-73
2022/12/13 00:08:52;;;;;;;21.23;15.27;;;;;;;-5.15;82.25;100638.81;5053919;28;20577;-73
2022/12/13 00:11:18;;;;;;;19.50;15.17;;;;;;;-5.09;82.53;100639.13;5053966;28;20209;-74
2022/12/13 00:13:46;;;;;;;21.30;15.33;;;;;;;-5.06;82.08;100641.81;5054179;28;20213;-73
2022/12/13 00:16:15;;;;;;;16.27;13.53;;;;;;;-5.27;81.55;100655.25;5053955;28;20678;-73
2022/12/13 00:18:42;;;;;;;17.03;13.57;;;;;;;-5.36;82.99;100642.09;5053624;28;20227;-72
2022/12/13 00:21:12;;;;;;;24.50;15.80;;;;;;;-5.54;83.79;100641.19;5053353;28;20291;-73
2022/12/13 00:23:39;;;;;;;22.37;15.77;;;;;;;-5.83;84.97;100615.19;5053910;28;20255;-72
2022/12/13 00:26:07;;;;;;;23.70;15.27;;;;;;;-5.67;85.27;100574.50;5053862;28;20213;-74
2022/12/13 00:28:34;;;;;;;19.70;14.37;;;;;;;-5.53;85.20;100543.75;5053622;28;20230;-74
2022/12/13 00:31:02;;;;;;;23.07;14.53;;;;;;;-5.41;84.56;100554.50;5053427;28;20204;-74
2022/12/13 00:33:29;;;;;;;21.23;14.80;;;;;;;-5.40;83.60;100559.66;5053556;28;20205;-74
2022/12/13 00:35:56;;;;;;;22.20;14.83;;;;;;;-5.34;82.99;100581.97;5053676;28;20224;-74
2022/12/13 00:38:23;;;;;;;21.10;14.63;;;;;;;-5.36;82.28;100601.38;5053448;28;20236;-73
2022/12/13 00:40:50;;;;;;;18.03;13.53;;;;;;;-5.23;81.66;100624.06;5053430;28;20205;-74
2022/12/13 00:43:17;;;;;;;20.70;14.90;;;;;;;-5.29;81.59;100635.59;5053134;28;20206;-73
2022/12/13 00:45:44;;;;;;;21.70;14.93;;;;;;;-5.51;82.62;100646.41;5052636;28;20205;-74
2022/12/13 00:48:12;;;;;;;18.80;12.90;;;;;;;-5.40;83.58;100619.84;5053318;28;20229;-73
2022/12/13 00:50:39;;;;;;;17.47;13.70;;;;;;;-5.33;83.05;100600.66;5053353;28;20206;-73
2022/12/13 00:53:05;;;;;;;21.10;14.57;;;;;;;-5.32;82.67;100602.41;5053425;28;20507;-73
2022/12/13 00:55:32;;;;;;;18.57;13.77;;;;;;;-5.34;82.24;100604.88;5053064;28;20701;-74
2022/12/13 00:57:59;;;;;;;18.57;14.70;;;;;;;-5.31;81.46;100620.28;5052940;28;20221;-74
2022/12/13 01:00:25;;;;;;;19.33;13.97;;;;;;;-5.42;81.24;100641.78;5052754;28;20589;-72
2022/12/13 01:02:53;;;;;;;17.70;13.23;;;;;;;-5.42;81.58;100645.19;5053242;28;20229;-72
2022/12/13 01:05:20;;;;;;;16.60;12.70;;;;;;;-5.38;82.27;100626.75;5053101;28;20205;-73
2022/12/13 01:07:47;;;;;;;20.40;13.23;;;;;;;-5.33;81.23;100633.72;5052953;28;20240;-72
2022/12/13 01:10:14;;;;;;;15.40;12.17;;;;;;;-5.37;82.31;100632.72;5052733;28;20621;-74
2022/12/13 01:12:40;;;;;;;14.13;11.70;;;;;;;-5.32;82.71;100626.16;5052742;28;20229;-74
2022/12/13 01:15:08;;;;;;;13.33;11.67;;;;;;;-5.29;82.96;100611.06;5052671;28;20213;-73
2022/12/13 01:17:35;;;;;;;14.23;10.67;;;;;;;-5.27;83.24;100603.47;5052743;28;20221;-73
2022/12/13 01:20:01;;;;;;;15.77;11.20;;;;;;;-5.25;81.99;100604.47;5052607;28;20209;-74
2022/12/13 01:22:29;;;;;;;15.10;11.63;;;;;;;-5.26;81.78;100618.81;5052601;28;20686;-73
2022/12/13 01:24:55;;;;;;;13.30;10.53;;;;;;;-5.32;80.63;100640.56;5052602;28;20221;-73
2022/12/13 01:27:22;;;;;;;12.97;10.53;;;;;;;-5.36;80.93;100654.81;5052360;28;20233;-73
2022/12/13 01:29:48;;;;;;;17.70;11.37;;;;;;;-5.43;80.54;100665.47;5052471;28;20202;-73
2022/12/13 01:32:15;;;;;;;16.37;11.23;;;;;;;-5.40;80.80;100655.47;5052406;28;20213;-73
2022/12/13 01:34:41;;;;;;;15.50;10.97;;;;;;;-5.38;81.74;100644.53;5052452;28;20241;-73
2022/12/13 01:37:08;;;;;;;12.70;10.87;;;;;;;-5.34;81.94;100637.06;5052558;28;20248;-73
2022/12/13 01:39:36;;;;;;;16.03;11.37;;;;;;;-5.36;82.50;100619.19;5052266;28;20209;-73
2022/12/13 01:42:04;;;;;;;14.00;11.10;;;;;;;-5.36;82.35;100611.56;5051950;28;20205;-74
2022/12/13 01:45:00;;;;;;;13.00;10.73;;;;;;;-5.35;81.68;100620.94;5052464;28;20288;-73
2022/12/13 01:47:33;;;;;;;11.93;10.73;;;;;;;-5.43;81.98;100623.13;5052048;28;20229;-72
2022/12/13 01:50:02;;;;;;;14.20;10.00;;;;;;;-5.37;82.12;100609.84;5051857;28;20213;-72
2022/12/13 01:52:32;;;;;;;14.33;10.80;;;;;;;-5.35;82.75;100609.88;5052093;28;20220;-73
2022/12/13 01:55:01;;;;;;;16.07;10.47;;;;;;;-5.30;83.75;100588.09;5052314;28;20213;-73
2022/12/13 01:57:28;;;;;;;19.07;12.77;;;;;;;-5.30;84.39;100568.59;5050930;28;20721;-73
2022/12/13 01:59:55;;;;;;;19.23;13.20;;;;;;;-5.45;84.81;100545.88;5051925;28;20583;-72
2022/12/13 02:02:22;;;;;;;17.60;13.57;;;;;;;-5.57;85.50;100530.00;5052117;28;20209;-73
2022/12/13 02:04:55;;;;;;;18.00;13.87;;;;;;;-5.69;85.24;100512.53;5052023;28;20209;-73
2022/12/13 02:07:27;;;;;;;19.83;13.27;;;;;;;-5.55;85.11;100502.97;5051934;28;20563;-73
2022/12/13 02:09:58;;;;;;;13.53;12.07;;;;;;;-5.51;83.34;100519.25;5052003;28;20212;-74
2022/12/13 02:12:28;;;;;;;17.17;12.07;;;;;;;-5.52;82.70;100558.22;5051756;28;20678;-74
2022/12/13 02:14:56;;;;;;;21.50;11.60;;;;;;;-5.56;82.00;100584.31;5051935;28;20414;-74
2022/12/13 02:17:32;;;;;;;16.57;11.33;;;;;;;-5.70;81.69;100604.84;5051705;28;20251;-74
2022/12/13 02:20:37;;;;;;;16.03;11.90;;;;;;;-5.69;82.21;100610.78;5051603;28;20566;-72
2022/12/13 02:23:28;;;;;;;14.47;12.00;;;;;;;-5.61;82.65;100604.41;5051745;28;20669;-72
2022/12/13 02:26:13;;;;;;;17.53;12.10;;;;;;;-5.59;81.77;100596.06;5051578;28;20205;-73
2022/12/13 02:29:00;;;;;;;15.57;12.87;;;;;;;-5.67;81.99;100605.00;5051764;28;20316;-74
2022/12/13 02:31:32;;;;;;;17.97;12.83;;;;;;;-5.78;81.45;100622.25;5051525;28;20300;-74
2022/12/13 02:34:04;;;;;;;17.90;12.80;;;;;;;-5.78;80.56;100641.72;5051585;28;20308;-74
2022/12/13 02:36:37;;;;;;;13.70;11.83;;;;;;;-5.82;80.74;100655.09;5051645;28;20216;-73
2022/12/13 02:39:10;;;;;;;17.83;11.83;;;;;;;-5.84;80.64;100665.16;5051733;28;20201;-74
2022/12/13 02:41:43;;;;;;;15.57;11.43;;;;;;;-5.88;80.83;100672.56;5051302;28;20300;-73
2022/12/13 02:44:15;;;;;;;16.10;12.00;;;;;;;-5.83;80.86;100666.94;5051703;28;20209;-72
2022/12/13 02:46:51;;;;;;;15.97;11.70;;;;;;;-5.83;80.58;100668.56;5051347;28;20209;-74
2022/12/13 02:49:19;;;;;;;13.60;11.87;;;;;;;-5.84;80.45;100665.16;5051399;28;20601;-73
2022/12/13 02:51:46;;;;;;;12.90;10.70;;;;;;;-5.80;80.38;100674.69;5051249;28;20212;-73
2022/12/13 02:54:12;;;;;;;17.00;12.17;;;;;;;-5.81;80.34;100670.41;5051371;28;20205;-73
2022/12/13 02:56:39;;;;;;;13.73;11.97;;;;;;;-5.86;80.34;100682.00;5051250;28;20582;-73
2022/12/13 02:59:12;;;;;;;17.67;13.13;;;;;;;-5.82;80.57;100686.44;5051315;28;20208;-73
2022/12/13 03:01:54;;;;;;;17.00;12.80;;;;;;;-5.82;80.54;100683.03;5051273;28;20232;-74
2022/12/13 03:04:32;;;;;;;16.40;12.20;;;;;;;-5.86;81.50;100660.81;5051504;28;20205;-72
2022/12/13 03:07:10;;;;;;;15.83;11.80;;;;;;;-5.87;81.84;100659.91;5051266;28;20252;-74
2022/12/13 03:09:48;;;;;;;14.10;11.73;;;;;;;-5.79;81.69;100630.69;5054675;28;20228;-73
2022/12/13 03:15:17;;;;;;;19.40;11.90;;;;;;;-5.78;82.73;100621.41;5055210;28;20338;-73
2022/12/13 03:17:49;;;;;;;15.03;12.27;;;;;;;-5.82;82.60;100606.78;5054723;28;20221;-72
2022/12/13 03:20:17;;;;;;;16.20;12.10;;;;;;;-5.90;82.97;100600.47;5055171;28;20222;-74
2022/12/13 03:22:44;;;;;;;16.80;11.70;;;;;;;-5.83;82.98;100592.31;5054996;28;20578;-73
2022/12/13 03:25:10;;;;;;;13.70;11.50;;;;;;;-5.80;82.66;100584.84;5055067;28;20209;-74
2022/12/13 03:27:37;;;;;;;15.30;12.67;;;;;;;-5.78;82.50;100583.25;5054712;28;20232;-73
2022/12/13 03:30:04;;;;;;;17.90;11.93;;;;;;;-5.80;82.25;100585.72;5054595;28;20675;-73
2022/12/13 03:32:30;;;;;;;16.00;12.67;;;;;;;-5.82;83.03;100578.81;5054613;28;20213;-74
2022/12/13 03:34:58;;;;;;;17.73;12.60;;;;;;;-5.84;83.01;100566.03;5054778;28;20205;-74
2022/12/13 03:37:25;;;;;;;16.53;11.90;;;;;;;-5.78;82.87;100558.72;5054742;28;20232;-74
2022/12/13 03:39:51;;;;;;;23.07;14.03;;;;;;;-5.73;82.41;100560.59;5054547;28;20205;-73
2022/12/13 03:42:18;;;;;;;17.87;13.37;;;;;;;-5.83;82.68;100571.97;5054421;28;20667;-73
2022/12/13 03:44:44;;;;;;;14.90;12.27;;;;;;;-5.80;81.98;100567.94;5054517;28;20201;-73
2022/12/13 03:47:11;;;;;;;16.53;12.93;;;;;;;-5.80;80.78;100583.19;5054764;28;20236;-73
2022/12/13 03:49:37;;;;;;;18.50;13.33;;;;;;;-5.88;81.27;100602.28;5054232;28;20236;-73
2022/12/13 03:52:05;;;;;;;18.80;13.20;;;;;;;-5.89;81.98;100575.09;5054281;28;20206;-73
2022/12/13 03:54:32;;;;;;;19.07;12.87;;;;;;;-5.91;81.52;100576.69;5054405;28;20300;-73
2022/12/13 03:56:58;;;;;;;16.07;11.13;;;;;;;-5.93;81.05;100587.59;5054383;28;20225;-74
2022/12/13 03:59:25;;;;;;;15.30;12.07;;;;;;;-6.00;80.81;100610.19;5054167;28;20229;-74
2022/12/13 04:01:51;;;;;;;14.13;11.73;;;;;;;-6.03;80.33;100610.00;5054322;28;20205;-73
2022/12/13 04:04:18;;;;;;;16.57;11.90;;;;;;;-5.96;80.45;100623.94;5054273;28;20213;-73
2022/12/13 04:06:44;;;;;;;16.40;12.37;;;;;;;-6.07;81.08;100632.66;5054105;28;20729;-73
2022/12/13 04:09:12;;;;;;;17.73;13.23;;;;;;;-6.16;82.07;100615.28;5054080;28;20225;-73
2022/12/13 04:14:23;;;;;;;18.00;12.43;;;;;;;-6.07;83.29;100570.00;5054084;28;20215;-73
2022/12/13 04:16:50;;;;;;;16.80;13.67;;;;;;;-6.28;85.46;100528.28;5053968;28;20230;-74
2022/12/13 04:19:16;;;;;;;16.17;12.57;;;;;;;-6.21;86.10;100461.75;5053062;28;20586;-74
2022/12/13 04:21:43;;;;;;;14.37;11.37;;;;;;;-6.12;85.36;100436.81;5053567;28;20214;-74
2022/12/13 04:24:09;;;;;;;14.60;11.90;;;;;;;-6.10;84.78;100432.69;5053837;28;20216;-73
2022/12/13 04:26:37;;;;;;;16.40;11.30;;;;;;;-5.95;84.04;100449.44;5053631;28;20213;-74
2022/12/13 04:29:03;;;;;;;15.07;11.40;;;;;;;-5.89;83.22;100480.19;5053872;28;20229;-73
2022/12/13 04:31:30;;;;;;;16.33;12.20;;;;;;;-5.88;83.15;100509.91;5053596;28;20217;-74
2022/12/13 04:33:56;;;;;;;16.13;12.40;;;;;;;-5.91;82.88;100520.78;5053706;28;20216;-74
2022/12/13 04:36:23;;;;;;;15.80;11.57;;;;;;;-5.97;83.21;100527.28;5053558;28;20217;-74
2022/12/13 04:38:49;;;;;;;13.83;11.50;;;;;;;-5.99;82.32;100527.19;5053480;28;20202;-74
2022/12/13 04:41:17;;;;;;;17.33;12.63;;;;;;;-6.00;81.56;100556.81;5053240;28;20212;-74
2022/12/13 04:43:51;;;;;;;13.33;10.97;;;;;;;-6.03;80.61;100571.03;5053538;28;20201;-73
2022/12/13 04:46:17;;;;;;;14.30;11.70;;;;;;;-6.03;80.37;100597.31;5053593;28;20259;-73
2022/12/13 04:48:44;;;;;;;14.47;12.50;;;;;;;-6.08;81.20;100615.69;5053119;28;20236;-73
2022/12/13 04:51:10;;;;;;;17.00;13.17;;;;;;;-6.05;81.14;100615.81;5053198;28;20205;-73
2022/12/13 04:53:37;;;;;;;15.73;13.13;;;;;;;-6.07;80.21;100623.38;5053193;28;20606;-72
2022/12/13 04:56:04;;;;;;;14.07;11.60;;;;;;;-6.14;79.76;100634.03;5053110;28;20206;-72
2022/12/13 04:58:31;;;;;;;15.47;12.37;;;;;;;-6.07;79.95;100637.75;5094734;23;20723;-70
2022/12/13 05:00:59;;;;;;;18.67;12.97;;;;;;;-6.03;80.75;100639.66;5093036;28;20227;-70
2022/12/13 05:03:26;;;;;;;16.03;11.90;;;;;;;-5.99;80.73;100626.28;5093163;28;20612;-70
2022/12/13 05:05:53;;;;;;;16.53;12.00;;;;;;;-6.06;80.37;100637.81;5093324;28;20203;-70
2022/12/13 05:08:19;;;;;;;16.23;12.07;;;;;;;-5.98;79.56;100650.94;5093117;28;20255;-70
2022/12/13 05:10:46;;;;;;;15.70;10.97;;;;;;;-6.03;79.07;100671.00;5092983;28;20207;-70
2022/12/13 05:13:12;;;;;;;14.13;11.50;;;;;;;-6.12;79.62;100685.78;5092990;28;20294;-70
2022/12/13 05:15:39;;;;;;;16.17;11.67;;;;;;;-6.15;80.30;100672.91;5092811;28;20675;-70
2022/12/13 05:18:07;;;;;;;19.53;12.40;;;;;;;-6.10;80.64;100658.78;5093054;28;20247;-70
2022/12/13 05:20:35;;;;;;;17.37;12.10;;;;;;;-6.00;81.16;100640.69;5092778;28;20201;-70
2022/12/13 05:23:02;;;;;;;14.97;12.33;;;;;;;-6.06;81.26;100624.25;5093048;28;20258;-70
2022/12/13 05:25:28;;;;;;;19.77;12.73;;;;;;;-6.04;81.27;100610.81;5092756;28;20688;-70
2022/12/13 05:27:56;;;;;;;14.20;12.53;;;;;;;-6.08;81.12;100608.94;5092789;28;20227;-70
2022/12/13 05:30:22;;;;;;;17.63;11.87;;;;;;;-6.13;81.03;100614.56;5092150;28;20224;-70
2022/12/13 05:32:49;;;;;;;15.67;12.10;;;;;;;-6.11;81.50;100613.84;5092907;28;20223;-70
2022/12/13 05:35:17;;;;;;;18.63;12.00;;;;;;;-6.24;81.77;100604.75;5092660;28;20212;-70
2022/12/13 05:37:43;;;;;;;18.53;12.50;;;;;;;-6.23;82.16;100592.91;5092612;28;20235;-71
2022/12/13 05:40:10;;;;;;;16.57;12.73;;;;;;;-6.14;82.06;100572.16;5092529;28;20210;-71
2022/12/13 05:42:37;;;;;;;18.53;13.23;;;;;;;-6.24;81.95;100576.78;5092588;28;20208;-71
2022/12/13 05:45:05;;;;;;;19.10;15.03;;;;;;;-6.30;81.93;100570.50;5092278;28;20211;-71
2022/12/13 05:47:32;;;;;;;17.43;13.07;;;;;;;-6.22;81.99;100566.72;5092417;28;20655;-70
2022/12/13 05:49:58;;;;;;;20.00;13.43;;;;;;;-6.23;81.68;100568.38;5092323;28;20273;-71
2022/12/13 05:52:26;;;;;;;21.03;14.20;;;;;;;-6.31;81.29;100573.88;5092327;28;20574;-71
2022/12/13 05:54:54;;;;;;;19.37;13.50;;;;;;;-6.28;81.19;100582.53;5092413;28;20215;-70
2022/12/13 05:57:21;;;;;;;16.00;12.90;;;;;;;-6.21;81.65;100579.47;5092075;28;20243;-71
2022/12/13 05:59:47;;;;;;;15.73;13.07;;;;;;;-6.22;81.65;100575.22;5092141;28;20597;-71
2022/12/13 06:02:14;;;;;;;16.30;12.67;;;;;;;-6.22;81.03;100581.97;5092231;28;20573;-71
2022/12/13 06:04:40;;;;;;;17.90;14.10;;;;;;;-6.24;80.91;100599.66;5092280;28;20215;-71
2022/12/13 06:07:07;;;;;;;17.73;13.13;;;;;;;-6.19;80.86;100597.34;5092213;28;20235;-71
2022/12/13 06:09:35;;;;;;;15.40;12.00;;;;;;;-6.24;81.15;100597.13;5092212;28;20228;-71
2022/12/13 06:12:01;;;;;;;17.50;13.77;;;;;;;-6.19;81.05;100587.19;5091806;28;20215;-70
2022/12/13 06:14:28;;;;;;;18.30;12.57;;;;;;;-6.28;81.74;100585.06;5092031;28;20677;-71
2022/12/13 06:16:54;;;;;;;21.90;13.37;;;;;;;-6.26;82.03;100573.31;5091949;28;20228;-70
2022/12/13 06:19:22;;;;;;;14.87;12.33;;;;;;;-6.19;81.48;100569.41;5092114;28;20204;-71
2022/12/13 06:21:48;;;;;;;17.43;12.33;;;;;;;-6.20;80.96;100582.91;5091790;28;20208;-71
2022/12/13 06:24:15;;;;;;;13.30;10.27;;;;;;;-6.16;81.02;100587.34;5091998;28;20550;-71
2022/12/13 06:26:43;;;;;;;13.33;10.53;;;;;;;-6.09;81.47;100579.22;5091720;28;20265;-70
2022/12/13 06:29:10;;;;;;;15.33;10.10;;;;;;;-6.02;81.77;100575.34;5092003;28;20232;-71
2022/12/13 06:31:37;;;;;;;11.97;10.27;;;;;;;-5.95;81.22;100573.97;5091857;28;20235;-71
2022/12/13 06:34:04;;;;;;;13.73;11.07;;;;;;;-5.93;81.65;100572.34;5091883;28;20295;-71
2022/12/13 06:36:30;;;;;;;13.90;11.50;;;;;;;-5.90;81.18;100578.44;5091646;28;20585;-71
2022/12/13 06:38:57;;;;;;;15.27;12.00;;;;;;;-5.98;81.91;100582.31;5091781;28;20196;-70
2022/12/13 06:41:23;;;;;;;13.47;12.10;;;;;;;-5.96;81.15;100574.78;5091435;28;20204;-72
2022/12/13 06:43:51;;;;;;;16.87;11.70;;;;;;;-5.92;81.42;100584.25;5094120;28;20688;-72
2022/12/13 06:46:17;;;;;;;16.47;11.73;;;;;;;-5.97;80.82;100591.66;5096047;28;20211;-72
2022/12/13 06:48:44;;;;;;;16.00;11.57;;;;;;;-6.01;81.39;100608.44;5095741;28;20239;-72
2022/12/13 06:51:11;;;;;;;16.07;11.73;;;;;;;-6.04;81.50;100597.25;5095560;28;20208;-71
2022/12/13 06:53:40;;;;;;;15.93;11.67;;;;;;;-6.06;81.49;100591.22;5095629;28;20203;-71
2022/12/13 06:56:08;;;;;;;13.30;11.03;;;;;;;-5.97;81.42;100589.13;5075323;28;20692;-72
2022/12/13 06:58:35;;;;;;;15.10;10.60;;;;;;;-5.87;80.90;100595.50;5075391;28;20235;-72
2022/12/13 07:01:05;;;;;;;16.20;12.83;;;;;;;-5.88;80.81;100602.28;5075104;28;20681;-70
2022/12/13 07:03:32;;;;;;;17.77;11.60;;;;;;;-5.90;80.53;100618.25;5075424;28;20473;-72
2022/12/13 07:05:59;;;;;;;14.90;11.60;;;;;;;-5.88;80.72;100622.59;5075251;28;20239;-72
2022/12/13 07:08:26;;;;;;;14.83;12.33;;;;;;;-5.82;80.64;100633.06;5074296;28;20740;-72
2022/12/13 07:10:54;;;;;;;13.57;11.77;;;;;;;-5.91;82.23;100617.34;5074980;28;20220;-72
2022/12/13 07:13:21;;;;;;;13.93;12.07;;;;;;;-5.78;81.74;100596.84;5075131;28;20204;-72
2022/12/13 07:15:47;;;;;;;18.43;12.57;;;;;;;-5.81;81.55;100598.34;5075038;28;20712;-72
2022/12/13 07:18:15;;;;;;;18.47;13.17;;;;;;;-5.82;81.63;100605.09;5074617;28;20225;-72
2022/12/13 07:20:43;;;;;;;17.13;12.73;;;;;;;-5.73;81.06;100607.22;5074645;28;20566;-72
2022/12/13 07:23:10;;;;;;;17.47;12.83;;;;;;;-5.80;81.07;100626.38;5075019;28;20201;-72
2022/12/13 07:25:36;;;;;;;17.40;12.37;;;;;;;-5.87;81.65;100621.78;5075137;28;20220;-72
2022/12/13 07:28:04;;;;;;;16.50;11.77;;;;;;;-5.77;81.47;100610.41;5074790;28;20227;-72
2022/12/13 07:30:33;;;;;;;17.53;12.10;;;;;;;-5.78;81.30;100614.63;5074784;28;20225;-71
2022/12/13 07:33:00;;;;;;;16.40;12.13;;;;;;;-5.79;81.11;100617.09;5075059;28;20256;-71
2022/12/13 07:35:28;;;;;;;16.37;12.27;;;;;;;-5.88;81.02;100624.28;5074669;28;20209;-71
2022/12/13 07:37:55;;;;;;;13.97;12.33;;;;;;;-5.85;80.87;100626.97;5074509;28;20594;-71
2022/12/13 07:40:21;;;;;;;15.03;12.87;;;;;;;-5.97;81.42;100634.00;5074660;28;20212;-72
2022/12/13 07:42:49;;;;;;;21.73;14.00;;;;;;;-6.00;82.03;100610.19;5074392;28;20672;-71
2022/12/13 07:45:16;;;;;;;15.87;12.80;;;;;;;-5.88;82.42;100604.81;5074603;28;20200;-71
2022/12/13 07:47:43;;;;;;;14.97;13.03;;;;;;;-5.95;82.47;100599.38;5074401;28;20236;-71
2022/12/13 07:50:10;;;;;;;15.67;13.10;;;;;;;-5.91;82.68;100588.53;5074493;28;20228;-71
2022/12/13 07:52:38;;;;;;;16.30;13.10;;;;;;;-5.87;82.68;100581.13;5074647;28;20212;-70
2022/12/13 07:55:05;;;;;;;19.00;13.63;;;;;;;-6.01;82.16;100590.63;5074183;28;20201;-71
2022/12/13 07:57:32;;;;;;;20.67;12.73;;;;;;;-5.92;82.53;100584.25;5074290;28;20270;-72
2022/12/13 07:59:58;;;;;;;18.73;14.07;;;;;;;-5.87;82.49;100580.25;5073923;28;20212;-72
2022/12/13 08:02:25;;;;;;;18.93;14.10;;;;;;;-5.83;82.24;100585.59;5074196;28;20262;-72
2022/12/13 08:04:51;;;;;;;20.20;14.00;;;;;;;-5.82;81.69;100578.81;5074044;28;20224;-71
2022/12/13 08:07:18;;;;;;;18.80;13.93;;;;;;;-5.84;81.24;100598.22;5077792;28;20600;-71
2022/12/13 08:09:46;;;;;;;17.67;13.83;;;;;;;-5.90;80.85;100615.69;5084826;28;20217;-71
2022/12/13 08:12:12;;;;;;;20.03;14.73;;;;;;;-5.95;80.89;100624.78;5083015;28;20211;-71
2022/12/13 08:14:39;;;;;;;17.73;14.10;;;;;;;-6.02;81.37;100632.09;5076286;28;20204;-71
2022/12/13 08:17:05;;;;;;;21.60;15.17;;;;;;;-6.03;81.56;100635.44;5073828;28;20224;-71
2022/12/13 08:19:32;;;;;;;20.70;15.17;;;;;;;-6.04;82.19;100615.91;5073669;28;20716;-71
2022/12/13 08:21:58;;;;;;;19.23;14.20;;;;;;;-6.01;82.03;100605.88;5073703;28;20266;-71
2022/12/13 08:24:26;;;;;;;16.77;13.43;;;;;;;-6.04;81.70;100617.59;5073590;28;20208;-71
2022/12/13 08:26:54;;;;;;;20.50;13.70;;;;;;;-6.12;81.81;100617.19;5076038;28;20307;-71
2022/12/13 08:29:20;;;;;;;20.33;15.43;;;;;;;-6.63;82.85;100629.78;5073148;28;20254;-71
2022/12/13 08:31:47;;;;;;;16.97;14.40;;;;;;;-6.68;83.65;100594.81;5081778;28;20204;-70
2022/12/13 08:34:13;;;;;;;24.87;15.27;;;;;;;-6.94;84.57;100563.84;5082518;28;20201;-72
2022/12/13 08:36:40;;;;;;;23.03;14.63;;;;;;;-6.89;85.18;100533.66;5082752;28;20219;-72
2022/12/13 08:39:06;;;;;;;22.57;15.93;;;;;;;-7.05;85.64;100516.75;5075985;28;20201;-71
2022/12/13 08:41:33;;;;;;;21.87;16.60;;;;;;;-7.02;85.86;100482.25;5073376;28;20204;-72
2022/12/13 08:44:01;;;;;;;27.43;16.97;;;;;;;-6.91;86.09;100466.75;5073179;28;20224;-72
2022/12/13 08:46:27;;;;;;;24.00;15.07;;;;;;;-6.76;85.99;100452.28;5073244;28;20215;-72
2022/12/13 08:48:54;;;;;;;18.27;15.40;;;;;;;-6.57;85.71;100448.13;5073464;28;20209;-72
2022/12/13 08:51:22;;;;;;;22.90;15.07;;;;;;;-6.50;85.48;100433.28;5072914;28;20236;-71
2022/12/13 08:53:49;;;;;;;22.07;15.23;;;;;;;-6.39;85.21;100442.28;5073667;28;20266;-71
2022/12/13 08:56:17;;;;;;;20.43;15.43;;;;;;;-6.24;84.93;100441.31;5073118;28;20209;-71
2022/12/13 08:58:44;;;;;;;18.50;14.53;;;;;;;-6.40;84.09;100460.00;5072817;28;20240;-71
2022/12/13 09:01:12;;;;;;;20.07;14.60;;;;;;;-6.25;84.20;100465.81;5075332;28;20569;-71
2022/12/13 09:03:38;;;;;;;22.10;15.33;;;;;;;-6.06;84.46;100480.28;5081305;28;20200;-71
2022/12/13 09:06:09;;;;;;;19.97;15.00;;;;;;;-5.99;83.97;100484.00;5081429;28;20207;-71
2022/12/13 09:08:35;;;;;;;21.10;14.40;;;;;;;-6.30;84.08;100507.91;5081866;28;20217;-71
2022/12/13 09:11:03;;;;;;;20.77;14.73;;;;;;;-6.41;84.69;100506.50;5081550;28;20231;-71
2022/12/13 09:13:31;;;;;;;20.93;14.67;;;;;;;-6.32;85.05;100490.84;5083308;28;20200;-71
2022/12/13 09:15:57;;;;;;;19.03;14.43;;;;;;;-6.12;85.08;100472.38;5075461;28;20259;-71
2022/12/13 09:18:26;;;;;;;20.47;15.37;;;;;;;-6.00;85.07;100470.44;5072270;28;20229;-71
2022/12/13 09:20:52;;;;;;;22.03;15.60;;;;;;;-5.93;84.80;100480.84;5072162;28;20204;-71
2022/12/13 09:23:19;;;;;;;23.40;15.67;;;;;;;-6.24;84.64;100498.06;5072798;28;20225;-71
2022/12/13 09:25:45;;;;;;;20.90;16.53;;;;;;;-6.22;84.85;100487.97;5072572;28;20205;-71
2022/12/13 09:28:12;;;;;;;23.60;16.60;;;;;;;-6.27;85.36;100484.31;5072380;28;20236;-71
2022/12/13 09:30:39;;;;;;;24.43;17.13;;;;;;;-6.19;86.03;100471.19;5072609;28;20251;-71
2022/12/13 09:33:06;;;;;;;23.77;17.20;;;;;;;-6.19;85.63;100466.09;5072397;28;20223;-71
2022/12/13 09:35:34;;;;;;;19.93;15.63;;;;;;;-6.16;85.80;100461.97;5072161;28;20204;-71
2022/12/13 09:38:00;;;;;;;25.50;16.53;;;;;;;-6.06;86.17;100452.34;5072408;28;20233;-71
2022/12/13 09:40:28;;;;;;;23.47;16.20;;;;;;;-6.08;86.33;100450.53;5071901;28;20669;-71
2022/12/13 09:42:57;;;;;;;20.97;15.03;;;;;;;-6.08;86.74;100442.91;5072423;28;20204;-71
2022/12/13 09:45:24;;;;;;;21.40;16.17;;;;;;;-6.09;86.99;100421.69;5072089;28;20708;-71
2022/12/13 09:47:53;;;;;;;21.37;16.27;;;;;;;-6.01;87.88;100411.91;5071790;28;20227;-71
2022/12/13 09:50:25;;;;;;;26.17;17.03;;;;;;;-6.15;88.42;100402.75;5071993;28;20224;-70
2022/12/13 09:52:54;;;;;;;30.63;17.40;;;;;;;-6.20;90.05;100362.78;5072138;28;20205;-71
2022/12/13 09:55:23;;;;;;;22.27;15.77;;;;;;;-6.03;90.51;100333.06;5072102;28;20201;-71
2022/12/13 09:57:51;;;;;;;24.03;16.00;;;;;;;-5.96;90.43;100301.19;5071792;28;20259;-72
2022/12/13 10:00:20;;;;;;;23.03;15.83;;;;;;;-5.79;90.99;100285.00;5071697;28;20201;-72
2022/12/13 10:02:50;;;;;;;22.40;15.83;;;;;;;-5.67;90.32;100274.50;5071812;28;20697;-70
2022/12/13 10:05:21;;;;;;;22.33;15.77;;;;;;;-5.55;89.86;100276.66;5072054;28;20204;-71
2022/12/13 10:07:48;;;;;;;27.00;17.20;;;;;;;-5.41;89.65;100284.91;5071795;28;20225;-71
2022/12/13 10:10:17;;;;;;;21.93;16.13;;;;;;;-5.47;88.97;100302.44;5071442;28;20617;-71
2022/12/13 10:12:48;;;;;;;26.07;16.60;;;;;;;-5.64;89.10;100305.13;5071578;28;20219;-72
2022/12/13 10:15:19;;;;;;;25.20;16.53;;;;;;;-5.59;89.89;100288.41;5071856;28;20212;-70
2022/12/13 10:17:48;;;;;;;22.47;14.87;;;;;;;-5.53;90.70;100264.94;5070681;28;20225;-72
2022/12/13 10:20:18;;;;;;;25.87;16.97;;;;;;;-5.38;90.43;100257.91;5071645;28;20201;-72
2022/12/13 10:22:44;;;;;;;26.87;17.33;;;;;;;-5.39;90.99;100248.56;5071407;28;20200;-71
2022/12/13 10:25:11;;;;;;;25.13;16.60;;;;;;;-5.26;91.43;100236.34;5071492;28;20212;-72
2022/12/13 10:27:40;;;;;;;19.17;16.17;;;;;;;-5.10;91.06;100232.75;5071667;28;20225;-71
2022/12/13 10:30:10;;;;;;;20.43;15.20;;;;;;;-4.96;90.90;100236.72;5071270;28;20232;-71
2022/12/13 10:32:45;;;;;;;21.40;16.03;;;;;;;-4.92;90.15;100261.50;5071532;28;20205;-72
2022/12/13 10:35:21;;;;;;;33.30;19.90;;;;;;;-5.00;90.61;100268.81;5071591;28;20209;-72
2022/12/13 10:37:48;;;;;;;27.67;19.43;;;;;;;-5.12;91.36;100247.09;5071623;28;20231;-71
2022/12/13 10:40:26;;;;;;;27.50;18.90;;;;;;;-5.32;93.04;100214.06;5079024;28;20196;-71
2022/12/13 10:43:13;;;;;;;26.63;17.93;;;;;;;-5.34;94.40;100180.06;5071034;28;20557;-71
2022/12/13 10:45:40;;;;;;;33.57;18.43;;;;;;;-5.26;95.00;100150.72;5076407;28;20204;-71
2022/12/13 10:48:18;;;;;;;24.93;16.93;;;;;;;-5.22;95.12;100129.69;5082122;28;20219;-71
2022/12/13 10:50:58;;;;;;;33.70;18.13;;;;;;;-5.10;95.42;100116.56;5082115;28;20220;-71
2022/12/13 10:53:30;;;;;;;25.03;17.90;;;;;;;-4.95;95.03;100098.50;5081990;28;20288;-72
2022/12/13 10:55:57;;;;;;;28.43;17.67;;;;;;;-4.93;95.56;100093.47;5081006;28;20193;-72
2022/12/13 10:58:35;;;;;;;27.87;17.30;;;;;;;-4.89;95.42;100093.63;5078970;28;20231;-71
2022/12/13 11:01:09;;;;;;;27.27;17.87;;;;;;;-4.88;95.29;100091.94;5070509;28;20201;-72
2022/12/13 11:03:36;;;;;;;27.13;16.97;;;;;;;-4.84;95.87;100087.00;5077690;28;20206;-73
2022/12/13 11:06:05;;;;;;;24.73;16.43;;;;;;;-4.76;96.29;100071.16;5079336;28;20262;-73
2022/12/13 11:08:32;;;;;;;28.43;18.50;;;;;;;-4.67;96.63;100061.31;5077815;28;20224;-75
2022/12/13 11:11:00;;;;;;;26.27;18.20;;;;;;;-4.60;96.87;100048.88;4370311;28;10000850;-72
2022/12/13 11:13:35;;;;;;;24.73;17.07;;;;;;;-4.60;96.37;100055.63;5067996;28;20240;-72
2022/12/13 11:16:03;;;;;;;29.43;18.20;;;;;;;-4.55;96.33;100056.66;5072070;28;20203;-71
2022/12/13 11:18:36;;;;;;;30.43;18.50;;;;;;;-4.49;96.29;100061.13;5087265;28;20232;-71
2022/12/13 11:21:06;;;;;;;29.73;18.43;;;;;;;-4.48;96.10;100062.84;5087948;28;20602;-71